Time;durP1;ratioP1;P1;durP2;ratioP2;P2;SDS_P1;SDS_P2;PMS_P1;PMS_P2;Temp;Humidity;BMP_temperature;BMP_pressure;BME280_temperature;BME280_humidity;BME280_pressure;Samples;Min_cycle;Max_cycle;Signal;HPM_P1;HPM_P2
2023/12/18 00:00:21;;;;;;;0.20;0.20;;;8.20;99.90;;;;;;5050136;28;20188;-82
2023/12/18 00:02:46;;;;;;;0.20;0.20;;;8.10;99.90;;;;;;5041297;28;20202;-81
2023/12/18 00:05:12;;;;;;;0.20;0.20;;;8.20;99.90;;;;;;5033127;28;20190;-82
2023/12/18 00:07:37;;;;;;;0.10;0.10;;;8.20;99.90;;;;;;5033461;28;20553;-81
2023/12/18 00:10:03;;;;;;;0.20;0.20;;;8.20;99.90;;;;;;5045203;28;20226;-81
2023/12/18 00:12:29;;;;;;;0.20;0.20;;;8.20;99.90;;;;;;5031977;28;20187;-81
2023/12/18 00:14:54;;;;;;;0.20;0.20;;;8.20;99.90;;;;;;5042292;28;20186;-82
2023/12/18 00:17:20;;;;;;;0.20;0.20;;;8.20;99.90;;;;;;5038507;28;20202;-81
2023/12/18 00:19:45;;;;;;;0.20;0.20;;;8.20;99.90;;;;;;5030860;28;20210;-81
2023/12/18 00:22:11;;;;;;;0.20;0.20;;;8.20;99.90;;;;;;5031457;28;20191;-81
2023/12/18 00:24:36;;;;;;;0.20;0.20;;;8.20;99.90;;;;;;5031369;28;20184;-82
2023/12/18 00:27:02;;;;;;;0.20;0.20;;;8.20;99.90;;;;;;5032577;28;20254;-81
2023/12/18 00:29:28;;;;;;;0.20;0.20;;;8.20;99.90;;;;;;5033333;28;20639;-81
2023/12/18 00:31:53;;;;;;;0.20;0.20;;;8.20;99.90;;;;;;5035686;28;20202;-81
2023/12/18 00:34:18;;;;;;;0.20;0.20;;;8.20;99.90;;;;;;5013404;28;20640;-81
2023/12/18 00:36:44;;;;;;;0.20;0.20;;;8.20;99.90;;;;;;5030698;28;20211;-81
2023/12/18 00:39:11;;;;;;;0.20;0.20;;;8.10;99.90;;;;;;5039576;28;20230;-81
2023/12/18 00:41:36;;;;;;;0.20;0.20;;;8.20;99.90;;;;;;5028487;28;20184;-81
2023/12/18 00:44:02;;;;;;;0.20;0.20;;;8.20;99.90;;;;;;5029189;28;20512;-81
2023/12/18 00:46:27;;;;;;;0.20;0.20;;;8.10;99.90;;;;;;5034565;28;20184;-81
2023/12/18 00:48:53;;;;;;;0.20;0.20;;;8.10;99.90;;;;;;5040260;28;20187;-81
2023/12/18 00:51:18;;;;;;;0.20;0.20;;;8.20;99.90;;;;;;5037464;28;20266;-82
2023/12/18 00:53:44;;;;;;;0.20;0.20;;;8.20;99.90;;;;;;5036287;28;20186;-83
2023/12/18 00:56:09;;;;;;;0.20;0.20;;;8.20;99.90;;;;;;5043114;28;20187;-82
2023/12/18 00:58:35;;;;;;;0.20;0.20;;;8.10;99.90;;;;;;5037061;28;20219;-82
2023/12/18 01:01:00;;;;;;;0.20;0.20;;;8.10;99.90;;;;;;5044373;28;20176;-83
2023/12/18 01:03:26;;;;;;;0.20;0.20;;;8.10;99.90;;;;;;5040998;28;20179;-82
2023/12/18 01:05:51;;;;;;;0.20;0.20;;;8.10;99.90;;;;;;5044927;28;20239;-82
2023/12/18 01:08:17;;;;;;;0.20;0.20;;;8.10;99.90;;;;;;5037226;28;20337;-81
2023/12/18 01:10:43;;;;;;;0.20;0.20;;;8.00;99.90;;;;;;5036932;28;20182;-82
2023/12/18 01:13:09;;;;;;;0.20;0.20;;;8.10;99.90;;;;;;5048962;28;20417;-82
2023/12/18 01:15:34;;;;;;;0.20;0.20;;;8.00;99.90;;;;;;5031910;28;20186;-81
2023/12/18 01:18:00;;;;;;;0.20;0.20;;;8.00;99.90;;;;;;5030164;28;20219;-81
2023/12/18 01:20:25;;;;;;;0.20;0.20;;;8.00;99.90;;;;;;5035810;28;20230;-82
2023/12/18 01:22:51;;;;;;;0.20;0.20;;;8.00;99.90;;;;;;5030854;28;20249;-83
2023/12/18 01:25:16;;;;;;;0.20;0.20;;;8.00;99.90;;;;;;5031528;28;20191;-82
2023/12/18 01:27:42;;;;;;;0.20;0.20;;;8.00;99.90;;;;;;5033678;28;20215;-82
2023/12/18 01:30:08;;;;;;;0.20;0.20;;;7.90;99.90;;;;;;5047552;28;20665;-81
2023/12/18 01:32:34;;;;;;;0.20;0.20;;;7.90;99.90;;;;;;5031774;28;20181;-82
2023/12/18 01:35:00;;;;;;;0.20;0.20;;;7.90;99.90;;;;;;5048599;28;20433;-81
2023/12/18 01:37:25;;;;;;;0.20;0.20;;;7.90;99.90;;;;;;5030018;28;20242;-81
2023/12/18 01:39:51;;;;;;;0.20;0.20;;;7.90;99.90;;;;;;5038771;28;20245;-81
2023/12/18 01:42:16;;;;;;;0.20;0.20;;;7.90;99.90;;;;;;5042891;28;20198;-81
2023/12/18 01:44:42;;;;;;;0.20;0.20;;;7.90;99.90;;;;;;5042408;28;20271;-81
2023/12/18 01:47:08;;;;;;;0.20;0.20;;;7.90;99.90;;;;;;5040493;28;20277;-81
2023/12/18 01:49:34;;;;;;;0.20;0.20;;;7.90;99.90;;;;;;5044276;28;20183;-80
2023/12/18 01:51:59;;;;;;;0.20;0.20;;;7.90;99.90;;;;;;5029468;28;20180;-81
2023/12/18 01:54:26;;;;;;;0.20;0.20;;;7.90;99.90;;;;;;5031712;28;20194;-81
2023/12/18 01:56:53;;;;;;;0.20;0.20;;;7.90;99.90;;;;;;5013267;28;20194;-81
2023/12/18 01:59:21;;;;;;;0.20;0.20;;;7.90;99.90;;;;;;5029999;28;20482;-81
2023/12/18 02:01:47;;;;;;;0.20;0.20;;;7.90;99.90;;;;;;5036090;28;20835;-80
2023/12/18 02:04:13;;;;;;;0.20;0.20;;;7.90;99.90;;;;;;5030111;28;20454;-81
2023/12/18 02:06:39;;;;;;;0.20;0.20;;;7.90;99.90;;;;;;5029481;28;20452;-81
2023/12/18 02:09:05;;;;;;;0.20;0.20;;;7.90;99.90;;;;;;5021056;28;20430;-80
2023/12/18 02:11:30;;;;;;;0.20;0.20;;;7.80;99.90;;;;;;5042682;28;20197;-80
2023/12/18 02:13:56;;;;;;;0.20;0.20;;;7.80;99.90;;;;;;5011800;28;20188;-81
2023/12/18 02:16:22;;;;;;;0.20;0.20;;;7.80;99.90;;;;;;5034596;28;20209;-81
2023/12/18 02:18:48;;;;;;;0.20;0.20;;;7.80;99.90;;;;;;5032194;28;20286;-80
2023/12/18 02:21:21;;;;;;;0.20;0.20;;;7.80;99.90;;;;;;5033585;28;20533;-80
2023/12/18 02:23:50;;;;;;;0.20;0.20;;;7.80;99.90;;;;;;5011749;28;20187;-80
2023/12/18 02:26:16;;;;;;;0.20;0.20;;;7.80;99.90;;;;;;5032154;28;20449;-80
2023/12/18 02:28:44;;;;;;;0.20;0.20;;;7.80;99.90;;;;;;5038866;28;20596;-80
2023/12/18 02:31:14;;;;;;;0.20;0.20;;;7.80;99.90;;;;;;5040319;28;20417;-80
2023/12/18 02:33:40;;;;;;;0.20;0.20;;;7.70;99.90;;;;;;5032596;28;20433;-81
2023/12/18 02:36:06;;;;;;;0.20;0.20;;;7.80;99.90;;;;;;5043231;28;20426;-81
2023/12/18 02:38:32;;;;;;;0.20;0.20;;;7.70;99.90;;;;;;5028207;28;20490;-80
2023/12/18 02:40:57;;;;;;;0.20;0.20;;;7.70;99.90;;;;;;5027406;28;20187;-80
2023/12/18 02:43:23;;;;;;;0.20;0.20;;;7.70;99.90;;;;;;5043561;28;20217;-80
2023/12/18 02:45:48;;;;;;;0.20;0.20;;;7.70;99.90;;;;;;5045703;28;20175;-80
2023/12/18 02:48:14;;;;;;;0.20;0.20;;;7.70;99.90;;;;;;5028889;28;20199;-80
2023/12/18 02:50:39;;;;;;;0.20;0.20;;;7.70;99.90;;;;;;5041000;28;20183;-80
2023/12/18 02:53:05;;;;;;;0.20;0.20;;;7.70;99.90;;;;;;5029577;28;20775;-80
2023/12/18 02:55:30;;;;;;;0.20;0.20;;;7.70;99.90;;;;;;5028928;28;20546;-80
2023/12/18 02:57:56;;;;;;;0.20;0.20;;;7.80;99.90;;;;;;5027382;28;20227;-80
2023/12/18 03:00:21;;;;;;;0.20;0.20;;;7.80;99.90;;;;;;5043388;28;20264;-81
2023/12/18 03:02:47;;;;;;;0.20;0.20;;;7.80;99.90;;;;;;5035150;28;20182;-81
2023/12/18 03:05:14;;;;;;;0.20;0.20;;;7.70;99.90;;;;;;5043822;28;20229;-81
2023/12/18 03:07:39;;;;;;;0.30;0.30;;;7.70;99.90;;;;;;5030771;28;20180;-81
2023/12/18 03:10:05;;;;;;;0.20;0.20;;;7.70;99.90;;;;;;5040811;28;20425;-81
2023/12/18 03:12:31;;;;;;;0.20;0.20;;;7.70;99.90;;;;;;5034223;28;20953;-80
2023/12/18 03:14:57;;;;;;;0.20;0.20;;;7.70;99.90;;;;;;5028692;28;20418;-80
2023/12/18 03:17:22;;;;;;;0.20;0.20;;;7.70;99.90;;;;;;5042912;28;20329;-80
2023/12/18 03:19:48;;;;;;;0.20;0.20;;;7.70;99.90;;;;;;5029323;28;20290;-81
2023/12/18 03:22:13;;;;;;;0.20;0.20;;;7.70;99.90;;;;;;5041077;28;20596;-80
2023/12/18 03:24:40;;;;;;;0.20;0.20;;;7.70;99.90;;;;;;5030971;28;20647;-81
2023/12/18 03:27:05;;;;;;;0.30;0.30;;;7.70;99.90;;;;;;5045910;28;20186;-80
2023/12/18 03:29:31;;;;;;;0.20;0.20;;;7.70;99.90;;;;;;5020098;28;20509;-80
2023/12/18 03:31:56;;;;;;;0.20;0.20;;;7.70;99.90;;;;;;5012873;28;20187;-78
2023/12/18 03:34:22;;;;;;;0.20;0.20;;;7.70;99.90;;;;;;5039420;28;20183;-80
2023/12/18 03:36:47;;;;;;;0.20;0.20;;;7.70;99.90;;;;;;5035101;28;20183;-80
2023/12/18 03:39:13;;;;;;;0.20;0.20;;;7.70;99.90;;;;;;5029788;28;20230;-80
2023/12/18 03:41:38;;;;;;;0.20;0.20;;;7.70;99.90;;;;;;5035719;28;20594;-81
2023/12/18 03:44:04;;;;;;;0.20;0.20;;;7.70;99.90;;;;;;5009420;28;20187;-80
2023/12/18 03:46:29;;;;;;;0.20;0.20;;;7.70;99.90;;;;;;5025477;28;20199;-80
2023/12/18 03:48:55;;;;;;;0.20;0.20;;;7.70;99.90;;;;;;5034080;28;20678;-81
2023/12/18 03:51:20;;;;;;;0.20;0.20;;;7.70;99.90;;;;;;5032602;28;20255;-80
2023/12/18 03:53:46;;;;;;;0.20;0.20;;;7.70;99.90;;;;;;5032618;28;20187;-80
2023/12/18 03:56:11;;;;;;;0.20;0.20;;;7.70;99.90;;;;;;5043776;28;20186;-80
2023/12/18 03:58:37;;;;;;;0.20;0.20;;;7.70;99.90;;;;;;5031354;28;20270;-80
2023/12/18 04:01:03;;;;;;;0.20;0.20;;;7.70;99.90;;;;;;5039076;28;20186;-80
2023/12/18 04:03:28;;;;;;;0.20;0.20;;;7.60;99.90;;;;;;5041501;28;20663;-80
2023/12/18 04:05:54;;;;;;;0.20;0.20;;;7.60;99.90;;;;;;5039556;28;20517;-80
2023/12/18 04:08:19;;;;;;;0.20;0.20;;;7.70;99.90;;;;;;5043668;28;20190;-81
2023/12/18 04:10:45;;;;;;;0.20;0.20;;;7.70;99.90;;;;;;5019912;28;20187;-80
2023/12/18 04:13:10;;;;;;;0.20;0.20;;;7.70;99.90;;;;;;5029630;28;20183;-80
2023/12/18 04:15:36;;;;;;;0.20;0.20;;;7.70;99.90;;;;;;5039292;28;20183;-80
2023/12/18 04:18:01;;;;;;;0.20;0.20;;;7.60;99.90;;;;;;5015466;28;20601;-80
2023/12/18 04:20:27;;;;;;;0.20;0.20;;;7.70;99.90;;;;;;5032499;28;20684;-80
2023/12/18 04:22:52;;;;;;;0.13;0.13;;;7.60;99.90;;;;;;5031784;28;20235;-80
2023/12/18 04:25:18;;;;;;;0.20;0.20;;;7.60;99.90;;;;;;5032520;28;20180;-80
2023/12/18 04:27:43;;;;;;;0.20;0.20;;;7.60;99.90;;;;;;5030828;28;20192;-80
2023/12/18 04:30:10;;;;;;;0.20;0.20;;;7.60;99.90;;;;;;5048907;28;20827;-80
2023/12/18 04:32:35;;;;;;;0.20;0.20;;;7.60;99.90;;;;;;5042456;28;20190;-80
2023/12/18 04:35:01;;;;;;;0.20;0.20;;;7.60;99.90;;;;;;5019456;28;20813;-80
2023/12/18 04:37:27;;;;;;;0.20;0.20;;;7.60;99.90;;;;;;5041903;28;20249;-81
2023/12/18 04:39:52;;;;;;;0.20;0.20;;;7.60;99.90;;;;;;5032191;28;20798;-80
2023/12/18 04:42:18;;;;;;;0.20;0.20;;;7.60;99.90;;;;;;5040656;28;20187;-80
2023/12/18 04:44:43;;;;;;;0.20;0.20;;;7.60;99.90;;;;;;5035724;28;20037;-80
2023/12/18 04:47:09;;;;;;;0.20;0.20;;;7.60;99.90;;;;;;5038253;28;20156;-79
2023/12/18 04:49:34;;;;;;;0.20;0.20;;;7.60;99.90;;;;;;5024578;28;20179;-80
2023/12/18 04:52:00;;;;;;;0.20;0.20;;;7.60;99.90;;;;;;5020027;28;20547;-80
2023/12/18 04:54:25;;;;;;;0.20;0.20;;;7.60;99.90;;;;;;5034682;28;20725;-80
2023/12/18 04:56:51;;;;;;;0.20;0.20;;;7.60;99.90;;;;;;5031131;28;20210;-80
2023/12/18 04:59:16;;;;;;;0.20;0.20;;;7.50;99.90;;;;;;5013291;28;20218;-80
2023/12/18 05:01:42;;;;;;;0.20;0.20;;;7.50;99.90;;;;;;5031899;28;20251;-80
2023/12/18 05:04:07;;;;;;;0.20;0.20;;;7.60;99.90;;;;;;5028336;28;20037;-80
2023/12/18 05:06:33;;;;;;;0.20;0.20;;;7.50;99.90;;;;;;5032893;28;20158;-80
2023/12/18 05:08:59;;;;;;;0.20;0.20;;;7.50;99.90;;;;;;5034399;28;20190;-80
2023/12/18 05:11:25;;;;;;;0.20;0.20;;;7.50;99.90;;;;;;5014318;28;20188;-80
2023/12/18 05:13:51;;;;;;;0.20;0.20;;;7.50;99.90;;;;;;5021835;28;20180;-80
2023/12/18 05:16:18;;;;;;;0.20;0.20;;;7.60;99.90;;;;;;5021358;28;20414;-79
2023/12/18 05:18:44;;;;;;;0.20;0.20;;;7.50;99.90;;;;;;5030291;28;20486;-81
2023/12/18 05:21:11;;;;;;;0.20;0.20;;;7.50;99.90;;;;;;5038958;28;20542;-80
2023/12/18 05:23:37;;;;;;;0.20;0.20;;;7.50;99.90;;;;;;5051116;28;20262;-80
2023/12/18 05:26:03;;;;;;;0.20;0.20;;;7.60;99.90;;;;;;5030608;28;20470;-80
2023/12/18 05:28:28;;;;;;;0.20;0.20;;;7.50;99.90;;;;;;5026244;28;20882;-80
2023/12/18 05:30:54;;;;;;;0.20;0.20;;;7.50;99.90;;;;;;5026955;28;20187;-80
2023/12/18 05:33:20;;;;;;;0.20;0.20;;;7.50;99.90;;;;;;5028748;28;20188;-80
2023/12/18 05:35:46;;;;;;;0.20;0.20;;;7.50;99.90;;;;;;5019341;28;20242;-80
2023/12/18 05:38:11;;;;;;;0.20;0.20;;;7.60;99.90;;;;;;5050550;28;20527;-80
2023/12/18 05:40:37;;;;;;;0.33;0.33;;;7.50;99.90;;;;;;5038832;28;20182;-80
2023/12/18 05:43:04;;;;;;;0.30;0.30;;;7.50;99.90;;;;;;5037799;28;20184;-80
2023/12/18 05:45:31;;;;;;;0.20;0.20;;;7.50;99.90;;;;;;5030134;28;20828;-80
2023/12/18 05:47:57;;;;;;;0.20;0.20;;;7.50;99.90;;;;;;5023116;28;20911;-80
2023/12/18 05:50:23;;;;;;;0.20;0.20;;;7.50;99.90;;;;;;5026729;28;20520;-80
2023/12/18 05:52:48;;;;;;;0.23;0.23;;;7.50;99.90;;;;;;5027484;28;20474;-80
2023/12/18 05:55:14;;;;;;;0.20;0.20;;;7.50;99.90;;;;;;5030512;28;20184;-80
2023/12/18 05:57:41;;;;;;;0.20;0.20;;;7.50;99.90;;;;;;5028266;28;20211;-80
2023/12/18 06:00:09;;;;;;;0.20;0.20;;;7.50;99.90;;;;;;5017116;28;20190;-79
2023/12/18 06:02:34;;;;;;;0.20;0.20;;;7.50;99.90;;;;;;5019817;28;20457;-80
2023/12/18 06:05:00;;;;;;;0.20;0.20;;;7.50;99.90;;;;;;5037960;28;20551;-80
2023/12/18 06:07:26;;;;;;;0.20;0.20;;;7.50;99.90;;;;;;5019281;28;20242;-80
2023/12/18 06:09:51;;;;;;;0.20;0.20;;;7.50;99.90;;;;;;5027799;28;20775;-80
2023/12/18 06:12:17;;;;;;;0.20;0.20;;;7.50;99.90;;;;;;5032490;28;20179;-80
2023/12/18 06:14:42;;;;;;;0.20;0.20;;;7.50;99.90;;;;;;5033910;28;20222;-81
2023/12/18 06:17:09;;;;;;;0.20;0.20;;;7.50;99.90;;;;;;5029339;28;20191;-80
2023/12/18 06:19:34;;;;;;;0.20;0.20;;;7.50;99.90;;;;;;5029120;28;20227;-81
2023/12/18 06:22:03;;;;;;;0.20;0.20;;;7.50;99.90;;;;;;5038000;28;20453;-80
2023/12/18 06:24:29;;;;;;;0.20;0.20;;;7.50;99.90;;;;;;5038199;28;20237;-81
2023/12/18 06:26:55;;;;;;;0.20;0.20;;;7.50;99.90;;;;;;5032926;28;20850;-82
2023/12/18 06:29:21;;;;;;;0.20;0.20;;;7.50;99.90;;;;;;5029057;28;20187;-79
2023/12/18 06:31:47;;;;;;;0.20;0.20;;;7.60;99.90;;;;;;5028821;28;20430;-82
2023/12/18 06:34:13;;;;;;;0.20;0.20;;;7.50;99.90;;;;;;5010005;28;20422;-82
2023/12/18 06:36:39;;;;;;;0.20;0.20;;;7.50;99.90;;;;;;5032695;28;20488;-81
2023/12/18 06:39:04;;;;;;;0.20;0.20;;;7.50;99.90;;;;;;5047935;28;20298;-82
2023/12/18 06:41:30;;;;;;;0.20;0.20;;;7.50;99.90;;;;;;5040420;28;20221;-82
2023/12/18 06:43:56;;;;;;;0.20;0.20;;;7.50;99.90;;;;;;5034997;28;20398;-82
2023/12/18 06:46:21;;;;;;;0.20;0.20;;;7.50;99.90;;;;;;5028736;28;20191;-82
2023/12/18 06:48:47;;;;;;;0.20;0.20;;;7.50;99.90;;;;;;5035389;28;20185;-81
2023/12/18 06:51:12;;;;;;;0.20;0.20;;;7.50;99.90;;;;;;5015078;28;20266;-81
2023/12/18 06:53:38;;;;;;;0.20;0.20;;;7.50;99.90;;;;;;5037441;28;20194;-81
2023/12/18 06:56:04;;;;;;;0.20;0.20;;;7.50;99.90;;;;;;5028928;28;20188;-82
2023/12/18 06:58:29;;;;;;;0.20;0.20;;;7.50;99.90;;;;;;5029859;28;20302;-82
2023/12/18 07:00:55;;;;;;;0.20;0.20;;;7.50;99.90;;;;;;5032405;28;20709;-82
2023/12/18 07:03:20;;;;;;;0.20;0.20;;;7.50;99.90;;;;;;5027843;28;20188;-82
2023/12/18 07:05:46;;;;;;;0.20;0.20;;;7.50;99.90;;;;;;5025570;28;20188;-81
2023/12/18 07:08:12;;;;;;;0.20;0.20;;;7.50;99.90;;;;;;5024321;28;20313;-81
2023/12/18 07:10:38;;;;;;;0.20;0.20;;;7.50;99.90;;;;;;5039428;28;20190;-82
2023/12/18 07:13:03;;;;;;;0.20;0.20;;;7.50;99.90;;;;;;5037190;28;20187;-81
2023/12/18 07:15:29;;;;;;;0.20;0.20;;;7.50;99.90;;;;;;5030690;28;20425;-81
2023/12/18 07:17:58;;;;;;;0.20;0.20;;;7.50;99.90;;;;;;5032534;28;20218;-81
2023/12/18 07:20:23;;;;;;;0.20;0.20;;;7.50;99.90;;;;;;5032243;28;20226;-81
2023/12/18 07:22:49;;;;;;;0.20;0.20;;;7.40;99.90;;;;;;5033835;28;20436;-81
2023/12/18 07:25:14;;;;;;;0.20;0.20;;;7.50;99.90;;;;;;5051545;28;20196;-81
2023/12/18 07:27:40;;;;;;;0.20;0.20;;;7.50;99.90;;;;;;5032276;28;20658;-80
2023/12/18 07:30:06;;;;;;;0.20;0.20;;;7.40;99.90;;;;;;5038341;28;20218;-81
2023/12/18 07:32:32;;;;;;;0.20;0.20;;;7.40;99.90;;;;;;5034854;28;20300;-80
2023/12/18 07:34:59;;;;;;;0.20;0.20;;;7.50;99.90;;;;;;5024175;28;20432;-80
2023/12/18 07:37:29;;;;;;;0.20;0.20;;;7.50;99.90;;;;;;5022994;28;20207;-80
2023/12/18 07:39:58;;;;;;;0.20;0.20;;;7.50;99.90;;;;;;5030168;28;20503;-80
2023/12/18 07:42:25;;;;;;;0.20;0.20;;;7.50;99.90;;;;;;5034054;28;20424;-80
2023/12/18 07:44:50;;;;;;;0.20;0.20;;;7.50;99.90;;;;;;5038572;28;20440;-81
2023/12/18 07:47:16;;;;;;;0.20;0.20;;;7.50;99.90;;;;;;5015194;28;20434;-81
2023/12/18 07:49:41;;;;;;;0.20;0.20;;;7.50;99.90;;;;;;5028788;28;20206;-80
2023/12/18 07:52:08;;;;;;;0.20;0.20;;;7.50;99.90;;;;;;5027858;28;20190;-81
2023/12/18 07:54:34;;;;;;;0.20;0.20;;;7.50;99.90;;;;;;5015125;28;20180;-80
2023/12/18 07:56:59;;;;;;;0.20;0.20;;;7.50;99.90;;;;;;5025754;28;20426;-81
2023/12/18 07:59:25;;;;;;;0.20;0.20;;;7.50;99.90;;;;;;5027397;28;20227;-81
2023/12/18 08:01:50;;;;;;;0.20;0.20;;;7.50;99.90;;;;;;5030430;28;20655;-82
2023/12/18 08:04:16;;;;;;;0.20;0.20;;;7.50;99.90;;;;;;5029292;28;20207;-80
2023/12/18 08:06:41;;;;;;;0.20;0.20;;;7.50;99.90;;;;;;5032244;28;20191;-80
2023/12/18 08:09:07;;;;;;;0.20;0.20;;;7.50;99.90;;;;;;5036580;28;20180;-81
2023/12/18 08:11:34;;;;;;;0.20;0.20;;;7.50;99.90;;;;;;5027656;28;20188;-80
2023/12/18 08:14:00;;;;;;;0.20;0.20;;;7.50;99.90;;;;;;5027106;28;20188;-81
2023/12/18 08:16:25;;;;;;;0.20;0.20;;;7.50;99.90;;;;;;5018992;28;20864;-81
2023/12/18 08:18:52;;;;;;;0.20;0.20;;;7.60;99.90;;;;;;5008617;28;20678;-80
2023/12/18 08:21:18;;;;;;;0.20;0.20;;;7.60;99.90;;;;;;5023410;28;20671;-80
2023/12/18 08:23:44;;;;;;;0.20;0.20;;;7.60;99.90;;;;;;5017394;28;20436;-80
2023/12/18 08:26:12;;;;;;;0.20;0.20;;;7.60;99.90;;;;;;5016129;28;20176;-81
2023/12/18 08:28:41;;;;;;;0.20;0.20;;;7.50;99.90;;;;;;5024926;28;20438;-80
2023/12/18 08:31:07;;;;;;;0.20;0.20;;;7.60;99.90;;;;;;4998154;28;20509;-81
2023/12/18 08:33:33;;;;;;;0.20;0.20;;;7.60;99.90;;;;;;5005796;28;20501;-80
2023/12/18 08:35:58;;;;;;;0.20;0.20;;;7.60;99.90;;;;;;5018724;28;20188;-81
2023/12/18 08:38:24;;;;;;;0.20;0.20;;;7.60;99.90;;;;;;5021784;28;20215;-81
2023/12/18 08:40:53;;;;;;;0.20;0.20;;;7.60;99.90;;;;;;5011754;28;20598;-80
2023/12/18 08:43:18;;;;;;;0.30;0.30;;;7.60;99.90;;;;;;5011088;28;20770;-81
2023/12/18 08:45:45;;;;;;;0.20;0.20;;;7.60;99.90;;;;;;5026034;28;20534;-81
2023/12/18 08:48:11;;;;;;;0.20;0.20;;;7.60;99.90;;;;;;5010433;28;20627;-82
2023/12/18 08:50:37;;;;;;;0.20;0.20;;;7.60;99.90;;;;;;5012717;28;20433;-79
2023/12/18 08:53:03;;;;;;;0.20;0.20;;;7.70;99.90;;;;;;5013802;28;20267;-81
2023/12/18 08:55:28;;;;;;;0.20;0.20;;;7.70;99.90;;;;;;5030630;28;20771;-81
2023/12/18 08:57:54;;;;;;;0.20;0.20;;;7.70;99.90;;;;;;5010449;28;20223;-81
2023/12/18 09:00:20;;;;;;;0.20;0.20;;;7.70;99.90;;;;;;5032944;28;20195;-81
2023/12/18 09:02:45;;;;;;;0.20;0.20;;;7.70;99.90;;;;;;5034240;28;20190;-80
2023/12/18 09:05:11;;;;;;;0.30;0.30;;;7.70;99.90;;;;;;5027692;28;20215;-80
2023/12/18 09:07:36;;;;;;;0.20;0.20;;;7.70;99.90;;;;;;5030965;28;20263;-81
2023/12/18 09:10:02;;;;;;;0.20;0.20;;;7.70;99.90;;;;;;5013617;28;20241;-81
2023/12/18 09:12:28;;;;;;;0.30;0.30;;;7.70;99.90;;;;;;5030598;28;20579;-81
2023/12/18 09:14:53;;;;;;;0.20;0.20;;;7.70;99.90;;;;;;5029489;28;20562;-82
2023/12/18 09:17:19;;;;;;;0.20;0.20;;;7.70;99.90;;;;;;5031785;28;20176;-81
2023/12/18 09:19:45;;;;;;;0.20;0.20;;;7.70;99.90;;;;;;5028821;28;20526;-81
2023/12/18 09:22:10;;;;;;;0.20;0.20;;;7.70;99.90;;;;;;5008655;28;20219;-82
2023/12/18 09:24:36;;;;;;;0.17;0.17;;;7.70;99.90;;;;;;5030638;28;20217;-82
2023/12/18 09:27:02;;;;;;;0.20;0.20;;;7.70;99.90;;;;;;5026382;28;20183;-81
2023/12/18 09:29:27;;;;;;;0.20;0.20;;;7.70;99.90;;;;;;5024109;28;20190;-82
2023/12/18 09:31:53;;;;;;;0.20;0.20;;;7.70;99.90;;;;;;5010845;28;20604;-82
2023/12/18 09:34:18;;;;;;;0.20;0.20;;;7.70;99.90;;;;;;5030583;28;21793;-82
2023/12/18 09:36:44;;;;;;;0.20;0.20;;;7.70;99.90;;;;;;5013368;28;20735;-82
2023/12/18 09:39:10;;;;;;;0.20;0.20;;;7.70;99.90;;;;;;5016613;28;20228;-82
2023/12/18 09:41:36;;;;;;;0.20;0.20;;;7.70;99.90;;;;;;5013421;28;20485;-81
2023/12/18 09:44:01;;;;;;;0.20;0.20;;;7.70;99.90;;;;;;5023247;28;20199;-82
2023/12/18 09:46:27;;;;;;;0.20;0.20;;;7.70;99.90;;;;;;5018452;28;20184;-82
2023/12/18 09:48:53;;;;;;;0.20;0.20;;;7.70;99.90;;;;;;5026973;28;20194;-82
2023/12/18 09:51:24;;;;;;;0.20;0.20;;;7.70;99.90;;;;;;5020642;28;20183;-82
2023/12/18 09:53:51;;;;;;;0.20;0.20;;;7.70;99.90;;;;;;5019199;28;21266;-82
2023/12/18 09:56:20;;;;;;;0.20;0.20;;;7.70;99.90;;;;;;4999277;28;20533;-82
2023/12/18 09:58:46;;;;;;;0.20;0.20;;;7.80;99.90;;;;;;5006678;28;20477;-80
2023/12/18 10:01:13;;;;;;;0.20;0.20;;;7.80;99.90;;;;;;5024448;28;20433;-80
2023/12/18 10:03:38;;;;;;;0.20;0.20;;;7.80;99.90;;;;;;5020495;28;20434;-80
2023/12/18 10:06:04;;;;;;;0.20;0.20;;;7.80;99.90;;;;;;5009189;28;21267;-80
2023/12/18 10:08:30;;;;;;;0.20;0.20;;;7.80;99.90;;;;;;5023864;28;20938;-80
2023/12/18 10:10:56;;;;;;;0.20;0.20;;;7.80;99.90;;;;;;5026516;28;20434;-80
2023/12/18 10:13:22;;;;;;;0.20;0.20;;;7.80;99.90;;;;;;5025578;28;20183;-80
2023/12/18 10:15:48;;;;;;;0.20;0.20;;;7.80;99.90;;;;;;5027915;28;20430;-80
2023/12/18 10:18:16;;;;;;;0.20;0.20;;;7.80;99.90;;;;;;5028893;28;20465;-80
2023/12/18 10:20:42;;;;;;;0.20;0.20;;;7.80;99.90;;;;;;5012434;28;21016;-82
2023/12/18 10:23:08;;;;;;;0.20;0.20;;;7.80;99.90;;;;;;5031561;28;20438;-80
2023/12/18 10:25:35;;;;;;;0.20;0.20;;;7.80;99.90;;;;;;5020082;28;20180;-81
2023/12/18 10:28:00;;;;;;;0.20;0.20;;;7.80;99.90;;;;;;5021020;28;20179;-82
2023/12/18 10:30:29;;;;;;;0.20;0.20;;;7.80;99.90;;;;;;5010022;28;20457;-81
2023/12/18 10:32:59;;;;;;;0.20;0.20;;;7.80;99.90;;;;;;5026230;28;20182;-81
2023/12/18 10:35:25;;;;;;;0.20;0.20;;;7.80;99.90;;;;;;5035929;28;20421;-80
2023/12/18 10:37:54;;;;;;;0.20;0.20;;;7.80;99.90;;;;;;5025076;28;20469;-80
2023/12/18 10:40:22;;;;;;;0.20;0.20;;;7.80;99.90;;;;;;5013813;28;20231;-80
2023/12/18 10:43:10;;;;;;;0.20;0.20;;;7.80;99.90;;;;;;5026696;28;20412;-80
2023/12/18 10:45:37;;;;;;;0.20;0.20;;;7.80;99.90;;;;;;5027702;28;20429;-81
2023/12/18 10:48:03;;;;;;;0.20;0.20;;;7.80;99.90;;;;;;5029309;28;20454;-81
2023/12/18 10:50:33;;;;;;;0.20;0.20;;;7.80;99.90;;;;;;5027256;28;20434;-81
2023/12/18 10:53:00;;;;;;;0.20;0.20;;;7.80;99.90;;;;;;5025243;28;20455;-81
2023/12/18 10:55:27;;;;;;;0.20;0.20;;;7.80;99.90;;;;;;5026386;28;20807;-80
2023/12/18 10:57:56;;;;;;;0.20;0.20;;;7.80;99.90;;;;;;5022460;28;20463;-80
2023/12/18 11:00:22;;;;;;;0.20;0.20;;;7.80;99.90;;;;;;5031427;28;20426;-80
2023/12/18 11:02:49;;;;;;;0.20;0.20;;;7.80;99.90;;;;;;5043586;28;20519;-81
2023/12/18 11:05:15;;;;;;;0.20;0.20;;;7.80;99.90;;;;;;5040629;28;20532;-81
2023/12/18 11:07:42;;;;;;;0.30;0.30;;;7.80;99.90;;;;;;5010156;28;20525;-81
2023/12/18 11:10:08;;;;;;;0.20;0.20;;;7.80;99.90;;;;;;5036407;28;20548;-81
2023/12/18 11:12:37;;;;;;;0.20;0.20;;;7.80;99.90;;;;;;5035370;28;20997;-81
2023/12/18 11:15:25;;;;;;;0.30;0.30;;;7.80;99.90;;;;;;5036691;28;20417;-81
2023/12/18 11:17:56;;;;;;;0.20;0.20;;;7.80;99.90;;;;;;5010236;28;20473;-81
2023/12/18 11:20:35;;;;;;;0.20;0.20;;;7.80;99.90;;;;;;5032758;28;20543;-80
2023/12/18 11:23:01;;;;;;;0.20;0.20;;;7.80;99.90;;;;;;5047635;28;20920;-80
2023/12/18 11:25:37;;;;;;;0.20;0.20;;;7.80;99.90;;;;;;5033562;28;20444;-81
2023/12/18 11:28:05;;;;;;;0.20;0.20;;;7.80;99.90;;;;;;5028709;28;20950;-80
2023/12/18 11:30:33;;;;;;;0.20;0.20;;;7.80;99.90;;;;;;5014313;28;20426;-80
2023/12/18 11:33:13;;;;;;;0.20;0.20;;;7.80;99.90;;;;;;5031604;28;20783;-80
2023/12/18 11:35:48;;;;;;;0.20;0.20;;;7.80;99.90;;;;;;5034519;28;20419;-80
2023/12/18 11:38:24;;;;;;;0.20;0.20;;;7.80;99.90;;;;;;5022510;28;20475;-79
2023/12/18 11:40:52;;;;;;;0.20;0.20;;;7.80;99.90;;;;;;5032786;28;20451;-80
2023/12/18 11:43:38;;;;;;;0.20;0.20;;;7.80;99.90;;;;;;5043900;28;20457;-80
2023/12/18 11:46:09;;;;;;;0.20;0.20;;;7.80;99.90;;;;;;5031073;28;20513;-79
2023/12/18 11:48:35;;;;;;;0.20;0.20;;;7.80;99.90;;;;;;5030920;28;20425;-80
2023/12/18 11:51:02;;;;;;;0.20;0.20;;;7.80;99.90;;;;;;5032760;28;20426;-79
2023/12/18 11:53:37;;;;;;;0.20;0.20;;;7.80;99.90;;;;;;5011340;28;20579;-79
2023/12/18 11:56:10;;;;;;;0.20;0.20;;;7.80;99.90;;;;;;5009340;28;20842;-80
2023/12/18 11:58:38;;;;;;;0.20;0.20;;;7.80;99.90;;;;;;5027806;28;20574;-80
2023/12/18 12:01:05;;;;;;;0.20;0.20;;;7.80;99.90;;;;;;5027743;28;20461;-78
2023/12/18 12:03:32;;;;;;;0.20;0.20;;;7.80;99.90;;;;;;5010636;28;20845;-80
2023/12/18 12:05:58;;;;;;;0.20;0.20;;;7.80;99.90;;;;;;4997140;28;20444;-79
2023/12/18 12:08:24;;;;;;;0.20;0.20;;;7.80;99.90;;;;;;5017928;28;20818;-79
2023/12/18 12:10:52;;;;;;;0.20;0.20;;;7.80;99.90;;;;;;5031975;28;20418;-80
2023/12/18 12:13:20;;;;;;;0.20;0.20;;;7.90;99.90;;;;;;5032811;28;20785;-79
2023/12/18 12:15:57;;;;;;;0.20;0.20;;;7.80;99.90;;;;;;5011591;28;21082;-79
2023/12/18 12:18:28;;;;;;;0.30;0.30;;;7.80;99.90;;;;;;4997323;28;20471;-79
2023/12/18 12:20:54;;;;;;;0.20;0.20;;;7.80;99.90;;;;;;5018615;28;20552;-79
2023/12/18 12:23:21;;;;;;;0.20;0.20;;;7.80;99.90;;;;;;5019935;28;20449;-79
2023/12/18 12:25:49;;;;;;;0.20;0.20;;;7.80;99.90;;;;;;4995857;28;20646;-80
2023/12/18 12:28:15;;;;;;;0.20;0.20;;;7.80;99.90;;;;;;5004852;28;20438;-80
2023/12/18 12:30:42;;;;;;;0.20;0.20;;;7.80;99.90;;;;;;5016100;28;20432;-79
2023/12/18 12:33:08;;;;;;;0.20;0.20;;;7.80;99.90;;;;;;5005907;28;20196;-80
2023/12/18 12:35:34;;;;;;;0.20;0.20;;;7.80;99.90;;;;;;5019104;28;20837;-80
2023/12/18 12:38:05;;;;;;;0.20;0.20;;;7.80;99.90;;;;;;5002525;28;20215;-80
2023/12/18 12:40:41;;;;;;;0.20;0.20;;;7.80;99.90;;;;;;5011797;28;20192;-80
2023/12/18 12:43:07;;;;;;;0.20;0.20;;;7.80;99.90;;;;;;4996587;28;20448;-78
2023/12/18 12:45:38;;;;;;;0.20;0.20;;;7.80;99.90;;;;;;5018687;28;20434;-80
2023/12/18 12:48:08;;;;;;;0.20;0.20;;;7.80;99.90;;;;;;5011928;28;20424;-80
2023/12/18 12:50:41;;;;;;;0.20;0.20;;;7.80;99.90;;;;;;5018939;28;20951;-80
2023/12/18 12:53:10;;;;;;;0.20;0.20;;;7.80;99.90;;;;;;4990202;28;20426;-80